KGUC

Gunnison-Crested Butte Regional Airport

Gunnison, Colorado, USA
METAR KGUC 212056Z AUTO VRB03KT 10SM CLR 17/M03 A3028 RMK AO2 SLP224 T01721028 56032
Observed Flight Rules
Oct-21 @ 20:56 UTC (40 minutes ago) Visual Flight Rules
Wind Visibility Clouds
Variable at 3 knots 10 miles
  • Clear skies
Temperatures Readings
Current 17°C / 63°F
Dewpoint -3°C / 27°F
Humidity 25%
Altimeter 30.28" Hg
Pressure 1022.4 hPa
Elevation 2339
METAR KGUC 212056Z AUTO VRB03KT 10SM CLR 17/M03 A3028 RMK AO2 SLP224 T01721028 56032
Observed Flight Rules
Oct-21 @ 20:56 UTC
(40 minutes ago)
VFR
Wind Visibility
Variable at 3 knots 10 miles
Clouds
  • Clear skies
Temperature Dewpoint
17°C / 63°F -3°C / 27°F
Humidity Altimeter Pressure
25% 30.28" Hg 1022.4 hPa